sensor_id;sensor_type;location;lat;lon;timestamp;temperature;humidity
61151;DHT22;47029;50.994;2.876;2022-12-10T00:00:42;3.30;99.90
61151;DHT22;47029;50.994;2.876;2022-12-10T00:03:09;3.10;99.90
61151;DHT22;47029;50.994;2.876;2022-12-10T00:05:36;3.20;99.90
61151;DHT22;47029;50.994;2.876;2022-12-10T00:08:02;3.10;99.90
61151;DHT22;47029;50.994;2.876;2022-12-10T00:10:28;3.00;99.90
61151;DHT22;47029;50.994;2.876;2022-12-10T00:12:54;2.90;99.90
61151;DHT22;47029;50.994;2.876;2022-12-10T00:15:20;3.20;99.90
61151;DHT22;47029;50.994;2.876;2022-12-10T00:17:46;3.10;99.90
61151;DHT22;47029;50.994;2.876;2022-12-10T00:20:12;3.10;99.90
61151;DHT22;47029;50.994;2.876;2022-12-10T00:22:39;3.20;99.90
61151;DHT22;47029;50.994;2.876;2022-12-10T00:25:05;3.30;99.90
61151;DHT22;47029;50.994;2.876;2022-12-10T00:27:31;3.50;99.90
61151;DHT22;47029;50.994;2.876;2022-12-10T00:29:58;3.30;99.90
61151;DHT22;47029;50.994;2.876;2022-12-10T00:32:24;3.20;99.90
61151;DHT22;47029;50.994;2.876;2022-12-10T00:34:51;3.10;99.90
61151;DHT22;47029;50.994;2.876;2022-12-10T00:37:17;3.20;99.90
61151;DHT22;47029;50.994;2.876;2022-12-10T00:39:43;3.20;99.90
61151;DHT22;47029;50.994;2.876;2022-12-10T00:42:10;3.30;99.90
61151;DHT22;47029;50.994;2.876;2022-12-10T00:44:37;3.20;99.90
61151;DHT22;47029;50.994;2.876;2022-12-10T00:47:04;3.20;99.90
61151;DHT22;47029;50.994;2.876;2022-12-10T00:49:32;3.20;99.90
61151;DHT22;47029;50.994;2.876;2022-12-10T00:52:00;3.30;99.90
61151;DHT22;47029;50.994;2.876;2022-12-10T00:54:26;3.40;99.90
61151;DHT22;47029;50.994;2.876;2022-12-10T00:56:52;3.40;99.90
61151;DHT22;47029;50.994;2.876;2022-12-10T00:59:18;3.40;99.90
61151;DHT22;47029;50.994;2.876;2022-12-10T01:01:45;3.10;99.90
61151;DHT22;47029;50.994;2.876;2022-12-10T01:04:16;3.00;99.90
61151;DHT22;47029;50.994;2.876;2022-12-10T01:06:51;3.30;99.90
61151;DHT22;47029;50.994;2.876;2022-12-10T01:09:22;3.30;99.90
61151;DHT22;47029;50.994;2.876;2022-12-10T01:11:49;3.40;99.90
61151;DHT22;47029;50.994;2.876;2022-12-10T01:14:23;3.00;99.90
61151;DHT22;47029;50.994;2.876;2022-12-10T01:16:53;2.70;99.90
61151;DHT22;47029;50.994;2.876;2022-12-10T01:19:20;2.90;99.90
61151;DHT22;47029;50.994;2.876;2022-12-10T01:21:54;3.00;99.90
61151;DHT22;47029;50.994;2.876;2022-12-10T01:24:22;2.90;99.90
61151;DHT22;47029;50.994;2.876;2022-12-10T01:26:49;3.00;99.90
61151;DHT22;47029;50.994;2.876;2022-12-10T01:29:15;3.00;99.90
61151;DHT22;47029;50.994;2.876;2022-12-10T01:31:41;2.80;99.90
61151;DHT22;47029;50.994;2.876;2022-12-10T01:34:09;2.80;99.90
61151;DHT22;47029;50.994;2.876;2022-12-10T01:36:39;2.80;99.90
61151;DHT22;47029;50.994;2.876;2022-12-10T01:39:07;3.10;99.90
61151;DHT22;47029;50.994;2.876;2022-12-10T01:41:37;3.10;99.90
61151;DHT22;47029;50.994;2.876;2022-12-10T01:46:47;3.20;99.90
61151;DHT22;47029;50.994;2.876;2022-12-10T01:51:52;3.60;99.90
61151;DHT22;47029;50.994;2.876;2022-12-10T01:54:24;2.80;99.90
61151;DHT22;47029;50.994;2.876;2022-12-10T01:57:35;2.90;99.90
61151;DHT22;47029;50.994;2.876;2022-12-10T01:59:45;2.90;99.90
61151;DHT22;47029;50.994;2.876;2022-12-10T02:02:44;2.70;99.90
61151;DHT22;47029;50.994;2.876;2022-12-10T02:13:28;2.20;99.90
61151;DHT22;47029;50.994;2.876;2022-12-10T02:16:18;2.40;99.90
61151;DHT22;47029;50.994;2.876;2022-12-10T02:18:49;2.40;99.90
61151;DHT22;47029;50.994;2.876;2022-12-10T02:21:30;2.30;99.90
61151;DHT22;47029;50.994;2.876;2022-12-10T02:24:02;2.20;99.90
61151;DHT22;47029;50.994;2.876;2022-12-10T02:26:43;2.20;99.90
61151;DHT22;47029;50.994;2.876;2022-12-10T02:29:19;2.00;99.90
61151;DHT22;47029;50.994;2.876;2022-12-10T02:31:55;2.20;99.90
61151;DHT22;47029;50.994;2.876;2022-12-10T02:34:24;2.20;99.90
61151;DHT22;47029;50.994;2.876;2022-12-10T02:36:53;2.10;99.90
61151;DHT22;47029;50.994;2.876;2022-12-10T02:39:26;2.00;99.90
61151;DHT22;47029;50.994;2.876;2022-12-10T02:41:54;2.00;99.90
61151;DHT22;47029;50.994;2.876;2022-12-10T02:44:22;2.20;99.90
61151;DHT22;47029;50.994;2.876;2022-12-10T02:46:53;2.20;99.90
61151;DHT22;47029;50.994;2.876;2022-12-10T02:49:20;2.20;99.90
61151;DHT22;47029;50.994;2.876;2022-12-10T02:51:48;2.40;99.90
61151;DHT22;47029;50.994;2.876;2022-12-10T02:54:40;2.30;99.90
61151;DHT22;47029;50.994;2.876;2022-12-10T03:00:02;2.20;99.90
61151;DHT22;47029;50.994;2.876;2022-12-10T03:11:21;2.20;99.90
61151;DHT22;47029;50.994;2.876;2022-12-10T03:16:23;1.90;99.90
61151;DHT22;47029;50.994;2.876;2022-12-10T03:18:54;2.00;99.90
61151;DHT22;47029;50.994;2.876;2022-12-10T03:21:21;2.10;99.90
61151;DHT22;47029;50.994;2.876;2022-12-10T03:23:49;2.20;99.90
61151;DHT22;47029;50.994;2.876;2022-12-10T03:26:18;2.10;99.90
61151;DHT22;47029;50.994;2.876;2022-12-10T03:28:54;1.90;99.90
61151;DHT22;47029;50.994;2.876;2022-12-10T03:31:22;1.80;99.90
61151;DHT22;47029;50.994;2.876;2022-12-10T03:33:50;1.90;99.90
61151;DHT22;47029;50.994;2.876;2022-12-10T03:36:19;2.00;99.90
61151;DHT22;47029;50.994;2.876;2022-12-10T03:38:46;2.20;99.90
61151;DHT22;47029;50.994;2.876;2022-12-10T03:41:11;1.80;99.90
61151;DHT22;47029;50.994;2.876;2022-12-10T03:43:51;2.00;99.90
61151;DHT22;47029;50.994;2.876;2022-12-10T03:46:18;2.00;99.90
61151;DHT22;47029;50.994;2.876;2022-12-10T03:48:44;1.70;99.90
61151;DHT22;47029;50.994;2.876;2022-12-10T03:51:11;2.00;99.90
61151;DHT22;47029;50.994;2.876;2022-12-10T03:53:36;1.60;99.90
61151;DHT22;47029;50.994;2.876;2022-12-10T03:56:02;1.50;99.90
61151;DHT22;47029;50.994;2.876;2022-12-10T03:58:29;1.40;99.90
61151;DHT22;47029;50.994;2.876;2022-12-10T04:00:57;1.40;99.90
61151;DHT22;47029;50.994;2.876;2022-12-10T04:03:23;1.30;99.90
61151;DHT22;47029;50.994;2.876;2022-12-10T04:05:50;1.30;99.90
61151;DHT22;47029;50.994;2.876;2022-12-10T04:08:16;1.20;99.90
61151;DHT22;47029;50.994;2.876;2022-12-10T04:10:43;1.30;99.90
61151;DHT22;47029;50.994;2.876;2022-12-10T04:13:10;1.20;99.90
61151;DHT22;47029;50.994;2.876;2022-12-10T04:16:11;0.90;99.90
61151;DHT22;47029;50.994;2.876;2022-12-10T04:18:54;1.00;99.90
61151;DHT22;47029;50.994;2.876;2022-12-10T04:21:20;0.90;99.90
61151;DHT22;47029;50.994;2.876;2022-12-10T04:24:06;1.30;99.90
61151;DHT22;47029;50.994;2.876;2022-12-10T04:26:51;1.20;99.90
61151;DHT22;47029;50.994;2.876;2022-12-10T04:29:29;1.30;99.90
61151;DHT22;47029;50.994;2.876;2022-12-10T04:31:56;1.20;99.90
61151;DHT22;47029;50.994;2.876;2022-12-10T04:34:22;0.90;99.90
61151;DHT22;47029;50.994;2.876;2022-12-10T04:36:49;2.00;99.90
61151;DHT22;47029;50.994;2.876;2022-12-10T04:39:17;2.00;99.90
61151;DHT22;47029;50.994;2.876;2022-12-10T04:41:46;1.00;99.90
61151;DHT22;47029;50.994;2.876;2022-12-10T04:44:12;1.20;99.90
61151;DHT22;47029;50.994;2.876;2022-12-10T04:46:39;1.30;99.90
61151;DHT22;47029;50.994;2.876;2022-12-10T04:49:05;0.90;99.90
61151;DHT22;47029;50.994;2.876;2022-12-10T04:51:32;0.80;99.90
61151;DHT22;47029;50.994;2.876;2022-12-10T04:53:59;2.50;99.90
61151;DHT22;47029;50.994;2.876;2022-12-10T04:56:25;1.10;99.90
61151;DHT22;47029;50.994;2.876;2022-12-10T04:58:51;1.10;99.90
61151;DHT22;47029;50.994;2.876;2022-12-10T05:01:18;1.10;99.90
61151;DHT22;47029;50.994;2.876;2022-12-10T05:03:44;1.40;99.90
61151;DHT22;47029;50.994;2.876;2022-12-10T05:06:12;1.50;99.90
61151;DHT22;47029;50.994;2.876;2022-12-10T05:08:39;1.70;99.90
61151;DHT22;47029;50.994;2.876;2022-12-10T05:11:08;1.40;99.90
61151;DHT22;47029;50.994;2.876;2022-12-10T05:13:34;1.20;99.90
61151;DHT22;47029;50.994;2.876;2022-12-10T05:16:03;1.20;99.90
61151;DHT22;47029;50.994;2.876;2022-12-10T05:18:29;1.20;99.90
61151;DHT22;47029;50.994;2.876;2022-12-10T05:21:00;1.30;99.90
61151;DHT22;47029;50.994;2.876;2022-12-10T05:23:26;1.70;99.90
61151;DHT22;47029;50.994;2.876;2022-12-10T05:26:07;1.30;99.90
61151;DHT22;47029;50.994;2.876;2022-12-10T05:28:42;1.40;99.90
61151;DHT22;47029;50.994;2.876;2022-12-10T05:31:16;1.40;99.90
61151;DHT22;47029;50.994;2.876;2022-12-10T05:33:43;1.30;99.90
61151;DHT22;47029;50.994;2.876;2022-12-10T05:36:11;1.40;99.90
61151;DHT22;47029;50.994;2.876;2022-12-10T05:38:38;1.70;99.90
61151;DHT22;47029;50.994;2.876;2022-12-10T05:41:09;1.20;99.90
61151;DHT22;47029;50.994;2.876;2022-12-10T05:43:37;1.30;99.90
61151;DHT22;47029;50.994;2.876;2022-12-10T05:46:06;1.30;99.90
61151;DHT22;47029;50.994;2.876;2022-12-10T05:48:34;1.10;99.90
61151;DHT22;47029;50.994;2.876;2022-12-10T05:51:21;1.20;99.90
61151;DHT22;47029;50.994;2.876;2022-12-10T05:53:47;1.20;99.90
61151;DHT22;47029;50.994;2.876;2022-12-10T05:56:21;1.50;99.90
61151;DHT22;47029;50.994;2.876;2022-12-10T05:58:49;1.30;99.90
61151;DHT22;47029;50.994;2.876;2022-12-10T06:01:20;1.30;99.90
61151;DHT22;47029;50.994;2.876;2022-12-10T06:03:47;1.40;99.90
61151;DHT22;47029;50.994;2.876;2022-12-10T06:06:13;1.30;99.90
61151;DHT22;47029;50.994;2.876;2022-12-10T06:08:41;1.50;99.90
61151;DHT22;47029;50.994;2.876;2022-12-10T06:11:10;1.10;99.90
61151;DHT22;47029;50.994;2.876;2022-12-10T06:13:37;1.30;99.90
61151;DHT22;47029;50.994;2.876;2022-12-10T06:16:06;1.30;99.90
61151;DHT22;47029;50.994;2.876;2022-12-10T06:18:34;1.30;99.90
61151;DHT22;47029;50.994;2.876;2022-12-10T06:21:06;1.20;99.90
61151;DHT22;47029;50.994;2.876;2022-12-10T06:23:34;1.30;99.90
61151;DHT22;47029;50.994;2.876;2022-12-10T06:26:09;1.30;99.90
61151;DHT22;47029;50.994;2.876;2022-12-10T06:28:37;1.30;99.90
61151;DHT22;47029;50.994;2.876;2022-12-10T06:31:03;1.20;99.90
61151;DHT22;47029;50.994;2.876;2022-12-10T06:33:30;1.20;99.90
61151;DHT22;47029;50.994;2.876;2022-12-10T06:35:56;1.30;99.90
61151;DHT22;47029;50.994;2.876;2022-12-10T06:38:22;1.40;99.90
61151;DHT22;47029;50.994;2.876;2022-12-10T06:40:47;1.20;99.90
61151;DHT22;47029;50.994;2.876;2022-12-10T06:43:14;1.30;99.90
61151;DHT22;47029;50.994;2.876;2022-12-10T06:45:42;1.30;99.90
61151;DHT22;47029;50.994;2.876;2022-12-10T06:48:09;1.10;99.90
61151;DHT22;47029;50.994;2.876;2022-12-10T06:50:36;0.90;99.90
61151;DHT22;47029;50.994;2.876;2022-12-10T06:53:03;1.20;99.90
61151;DHT22;47029;50.994;2.876;2022-12-10T06:55:30;0.90;99.90
61151;DHT22;47029;50.994;2.876;2022-12-10T06:57:56;1.20;99.90
61151;DHT22;47029;50.994;2.876;2022-12-10T07:00:23;1.00;99.90
61151;DHT22;47029;50.994;2.876;2022-12-10T07:02:49;1.00;99.90
61151;DHT22;47029;50.994;2.876;2022-12-10T07:05:16;1.00;99.90
61151;DHT22;47029;50.994;2.876;2022-12-10T07:07:43;1.10;99.90
61151;DHT22;47029;50.994;2.876;2022-12-10T07:10:11;1.60;99.90
61151;DHT22;47029;50.994;2.876;2022-12-10T07:12:36;0.90;99.90
61151;DHT22;47029;50.994;2.876;2022-12-10T07:15:04;1.10;99.90
61151;DHT22;47029;50.994;2.876;2022-12-10T07:17:30;1.10;99.90
61151;DHT22;47029;50.994;2.876;2022-12-10T07:19:58;1.20;99.90
61151;DHT22;47029;50.994;2.876;2022-12-10T07:22:25;1.50;99.90
61151;DHT22;47029;50.994;2.876;2022-12-10T07:24:52;1.20;99.90
61151;DHT22;47029;50.994;2.876;2022-12-10T07:27:18;1.20;99.90
61151;DHT22;47029;50.994;2.876;2022-12-10T07:29:45;1.10;99.90
61151;DHT22;47029;50.994;2.876;2022-12-10T07:32:11;1.10;99.90
61151;DHT22;47029;50.994;2.876;2022-12-10T07:34:38;1.10;99.90
61151;DHT22;47029;50.994;2.876;2022-12-10T07:37:05;1.10;99.90
61151;DHT22;47029;50.994;2.876;2022-12-10T07:39:32;1.00;99.90
61151;DHT22;47029;50.994;2.876;2022-12-10T07:41:59;1.00;99.90
61151;DHT22;47029;50.994;2.876;2022-12-10T07:44:26;1.20;99.90
61151;DHT22;47029;50.994;2.876;2022-12-10T07:46:53;1.10;99.90
61151;DHT22;47029;50.994;2.876;2022-12-10T07:49:19;0.90;99.90
61151;DHT22;47029;50.994;2.876;2022-12-10T07:51:47;1.10;99.90
61151;DHT22;47029;50.994;2.876;2022-12-10T07:54:14;1.00;99.90
61151;DHT22;47029;50.994;2.876;2022-12-10T07:56:41;0.90;99.90
61151;DHT22;47029;50.994;2.876;2022-12-10T07:59:08;1.10;99.90
61151;DHT22;47029;50.994;2.876;2022-12-10T08:01:34;0.90;99.90
61151;DHT22;47029;50.994;2.876;2022-12-10T08:04:00;0.80;99.90
61151;DHT22;47029;50.994;2.876;2022-12-10T08:06:27;0.80;99.90
61151;DHT22;47029;50.994;2.876;2022-12-10T08:08:54;0.80;99.90
61151;DHT22;47029;50.994;2.876;2022-12-10T08:11:21;-0.40;99.90
61151;DHT22;47029;50.994;2.876;2022-12-10T08:13:50;1.00;99.90
61151;DHT22;47029;50.994;2.876;2022-12-10T08:16:19;1.00;99.90
61151;DHT22;47029;50.994;2.876;2022-12-10T08:18:46;1.20;99.90
61151;DHT22;47029;50.994;2.876;2022-12-10T08:21:18;1.00;99.90
61151;DHT22;47029;50.994;2.876;2022-12-10T08:23:46;0.90;99.90
61151;DHT22;47029;50.994;2.876;2022-12-10T08:26:16;1.20;99.90
61151;DHT22;47029;50.994;2.876;2022-12-10T08:28:44;1.10;99.90
61151;DHT22;47029;50.994;2.876;2022-12-10T08:31:11;1.00;99.90
61151;DHT22;47029;50.994;2.876;2022-12-10T08:33:38;1.20;99.90
61151;DHT22;47029;50.994;2.876;2022-12-10T08:36:06;1.30;99.90
61151;DHT22;47029;50.994;2.876;2022-12-10T08:38:34;1.30;99.90
61151;DHT22;47029;50.994;2.876;2022-12-10T08:41:12;1.40;99.90
61151;DHT22;47029;50.994;2.876;2022-12-10T08:43:38;1.60;99.90
61151;DHT22;47029;50.994;2.876;2022-12-10T08:46:08;1.50;99.90
61151;DHT22;47029;50.994;2.876;2022-12-10T08:48:34;1.40;99.90
61151;DHT22;47029;50.994;2.876;2022-12-10T08:51:01;1.70;99.90
61151;DHT22;47029;50.994;2.876;2022-12-10T08:53:27;1.60;99.90
61151;DHT22;47029;50.994;2.876;2022-12-10T08:55:53;1.60;99.90
61151;DHT22;47029;50.994;2.876;2022-12-10T08:58:20;1.70;99.90
61151;DHT22;47029;50.994;2.876;2022-12-10T09:00:47;1.70;99.90
61151;DHT22;47029;50.994;2.876;2022-12-10T09:03:15;1.60;99.90
61151;DHT22;47029;50.994;2.876;2022-12-10T09:05:41;1.90;99.90
61151;DHT22;47029;50.994;2.876;2022-12-10T09:08:09;2.00;99.90
61151;DHT22;47029;50.994;2.876;2022-12-10T09:10:39;2.00;99.90
61151;DHT22;47029;50.994;2.876;2022-12-10T09:13:07;2.10;99.90
61151;DHT22;47029;50.994;2.876;2022-12-10T09:15:34;2.20;99.90
61151;DHT22;47029;50.994;2.876;2022-12-10T09:18:01;2.20;99.90
61151;DHT22;47029;50.994;2.876;2022-12-10T09:20:29;2.10;99.90
61151;DHT22;47029;50.994;2.876;2022-12-10T09:22:56;2.30;99.90
61151;DHT22;47029;50.994;2.876;2022-12-10T09:25:25;2.30;99.90
61151;DHT22;47029;50.994;2.876;2022-12-10T09:27:51;2.20;99.90
61151;DHT22;47029;50.994;2.876;2022-12-10T09:30:18;2.60;99.90
61151;DHT22;47029;50.994;2.876;2022-12-10T09:32:46;2.10;99.90
61151;DHT22;47029;50.994;2.876;2022-12-10T09:35:13;2.50;99.90
61151;DHT22;47029;50.994;2.876;2022-12-10T09:37:41;2.20;99.90
61151;DHT22;47029;50.994;2.876;2022-12-10T09:40:15;3.40;99.90
61151;DHT22;47029;50.994;2.876;2022-12-10T09:42:52;2.30;99.90
61151;DHT22;47029;50.994;2.876;2022-12-10T09:48:12;2.40;99.90
61151;DHT22;47029;50.994;2.876;2022-12-10T09:51:07;2.30;99.90
61151;DHT22;47029;50.994;2.876;2022-12-10T09:53:36;2.60;99.90
61151;DHT22;47029;50.994;2.876;2022-12-10T09:56:03;2.80;99.90
61151;DHT22;47029;50.994;2.876;2022-12-10T09:58:30;2.90;99.90
61151;DHT22;47029;50.994;2.876;2022-12-10T10:01:03;2.90;99.90
61151;DHT22;47029;50.994;2.876;2022-12-10T10:03:37;2.80;99.90
61151;DHT22;47029;50.994;2.876;2022-12-10T10:06:05;2.90;99.90
61151;DHT22;47029;50.994;2.876;2022-12-10T10:11:00;2.80;99.90
61151;DHT22;47029;50.994;2.876;2022-12-10T10:13:39;2.90;99.90
61151;DHT22;47029;50.994;2.876;2022-12-10T10:16:26;2.90;99.90
61151;DHT22;47029;50.994;2.876;2022-12-10T10:19:03;3.00;99.90
61151;DHT22;47029;50.994;2.876;2022-12-10T10:21:37;3.00;99.90
61151;DHT22;47029;50.994;2.876;2022-12-10T10:24:05;4.20;99.90
61151;DHT22;47029;50.994;2.876;2022-12-10T10:26:32;3.30;99.90
61151;DHT22;47029;50.994;2.876;2022-12-10T10:29:07;3.30;99.90
61151;DHT22;47029;50.994;2.876;2022-12-10T10:31:36;3.40;99.90
61151;DHT22;47029;50.994;2.876;2022-12-10T10:34:14;3.40;99.90
61151;DHT22;47029;50.994;2.876;2022-12-10T10:36:42;3.50;99.90
61151;DHT22;47029;50.994;2.876;2022-12-10T10:39:29;3.40;99.90
61151;DHT22;47029;50.994;2.876;2022-12-10T10:41:57;3.30;99.90
61151;DHT22;47029;50.994;2.876;2022-12-10T10:44:27;3.40;99.90
61151;DHT22;47029;50.994;2.876;2022-12-10T10:46:55;3.40;99.90
61151;DHT22;47029;50.994;2.876;2022-12-10T10:49:29;3.70;99.90
61151;DHT22;47029;50.994;2.876;2022-12-10T10:52:04;2.20;99.90
61151;DHT22;47029;50.994;2.876;2022-12-10T10:54:38;4.00;99.90
61151;DHT22;47029;50.994;2.876;2022-12-10T10:59:36;4.70;99.90
61151;DHT22;47029;50.994;2.876;2022-12-10T11:04:36;4.70;99.90
61151;DHT22;47029;50.994;2.876;2022-12-10T11:07:05;4.90;99.90
61151;DHT22;47029;50.994;2.876;2022-12-10T11:09:37;4.80;99.90
61151;DHT22;47029;50.994;2.876;2022-12-10T11:12:06;4.70;99.90
61151;DHT22;47029;50.994;2.876;2022-12-10T11:14:45;4.70;99.90
61151;DHT22;47029;50.994;2.876;2022-12-10T11:20:12;4.80;99.90
61151;DHT22;47029;50.994;2.876;2022-12-10T11:22:52;4.60;99.90
61151;DHT22;47029;50.994;2.876;2022-12-10T11:34:17;5.40;99.90
61151;DHT22;47029;50.994;2.876;2022-12-10T11:37:01;5.30;99.90
61151;DHT22;47029;50.994;2.876;2022-12-10T11:45:23;5.40;99.90
61151;DHT22;47029;50.994;2.876;2022-12-10T11:50:59;5.40;99.90
61151;DHT22;47029;50.994;2.876;2022-12-10T11:54:01;5.30;99.90
61151;DHT22;47029;50.994;2.876;2022-12-10T11:59:36;5.30;99.90
61151;DHT22;47029;50.994;2.876;2022-12-10T12:07:48;5.40;99.90
61151;DHT22;47029;50.994;2.876;2022-12-10T12:10:27;5.50;99.90
61151;DHT22;47029;50.994;2.876;2022-12-10T12:13:09;5.50;99.90
61151;DHT22;47029;50.994;2.876;2022-12-10T12:15:42;5.40;99.90
61151;DHT22;47029;50.994;2.876;2022-12-10T12:18:18;6.90;99.90
61151;DHT22;47029;50.994;2.876;2022-12-10T12:26:13;5.70;99.90
61151;DHT22;47029;50.994;2.876;2022-12-10T12:28:41;5.70;99.90
61151;DHT22;47029;50.994;2.876;2022-12-10T12:31:12;5.70;99.90
61151;DHT22;47029;50.994;2.876;2022-12-10T12:33:43;5.80;99.90
61151;DHT22;47029;50.994;2.876;2022-12-10T12:36:25;5.30;99.90
61151;DHT22;47029;50.994;2.876;2022-12-10T12:38:56;5.70;99.90
61151;DHT22;47029;50.994;2.876;2022-12-10T12:44:22;5.70;99.90
61151;DHT22;47029;50.994;2.876;2022-12-10T12:46:50;5.60;99.90
61151;DHT22;47029;50.994;2.876;2022-12-10T12:49:37;5.60;99.90
61151;DHT22;47029;50.994;2.876;2022-12-10T12:52:26;5.60;99.90
61151;DHT22;47029;50.994;2.876;2022-12-10T12:54:58;5.70;99.90
61151;DHT22;47029;50.994;2.876;2022-12-10T12:57:50;5.70;99.90
61151;DHT22;47029;50.994;2.876;2022-12-10T13:00:19;5.70;99.90
61151;DHT22;47029;50.994;2.876;2022-12-10T13:03:33;5.80;99.90
61151;DHT22;47029;50.994;2.876;2022-12-10T13:06:24;5.70;99.90
61151;DHT22;47029;50.994;2.876;2022-12-10T13:11:42;5.90;99.90
61151;DHT22;47029;50.994;2.876;2022-12-10T13:43:34;6.00;99.90
61151;DHT22;47029;50.994;2.876;2022-12-10T13:46:34;6.00;99.90
61151;DHT22;47029;50.994;2.876;2022-12-10T13:49:05;6.00;99.90
61151;DHT22;47029;50.994;2.876;2022-12-10T13:51:48;5.80;99.90
61151;DHT22;47029;50.994;2.876;2022-12-10T13:57:14;6.00;99.90
61151;DHT22;47029;50.994;2.876;2022-12-10T13:59:55;6.00;99.90
61151;DHT22;47029;50.994;2.876;2022-12-10T14:08:29;6.20;99.90
61151;DHT22;47029;50.994;2.876;2022-12-10T14:11:01;6.40;99.90
61151;DHT22;47029;50.994;2.876;2022-12-10T14:13:41;6.20;99.90
61151;DHT22;47029;50.994;2.876;2022-12-10T14:16:15;6.30;99.90
61151;DHT22;47029;50.994;2.876;2022-12-10T14:19:01;6.10;99.90
61151;DHT22;47029;50.994;2.876;2022-12-10T14:21:38;6.20;99.90
61151;DHT22;47029;50.994;2.876;2022-12-10T14:24:05;6.00;99.90
61151;DHT22;47029;50.994;2.876;2022-12-10T14:26:36;6.00;99.90
61151;DHT22;47029;50.994;2.876;2022-12-10T14:29:22;6.00;99.90
61151;DHT22;47029;50.994;2.876;2022-12-10T14:31:53;6.20;99.90
61151;DHT22;47029;50.994;2.876;2022-12-10T14:34:26;6.20;99.90
61151;DHT22;47029;50.994;2.876;2022-12-10T14:37:00;6.40;99.90
61151;DHT22;47029;50.994;2.876;2022-12-10T14:39:29;6.40;99.90
61151;DHT22;47029;50.994;2.876;2022-12-10T14:42:02;6.40;99.90
61151;DHT22;47029;50.994;2.876;2022-12-10T14:44:33;6.30;99.90
61151;DHT22;47029;50.994;2.876;2022-12-10T14:47:19;6.30;99.90
61151;DHT22;47029;50.994;2.876;2022-12-10T14:49:50;6.20;99.90
61151;DHT22;47029;50.994;2.876;2022-12-10T14:52:22;6.00;99.90
61151;DHT22;47029;50.994;2.876;2022-12-10T14:54:51;6.00;99.90
61151;DHT22;47029;50.994;2.876;2022-12-10T14:57:30;6.00;99.90
61151;DHT22;47029;50.994;2.876;2022-12-10T15:00:09;6.00;99.90
61151;DHT22;47029;50.994;2.876;2022-12-10T15:02:44;5.90;99.90
61151;DHT22;47029;50.994;2.876;2022-12-10T15:05:28;5.80;99.90
61151;DHT22;47029;50.994;2.876;2022-12-10T15:08:01;5.70;99.90
61151;DHT22;47029;50.994;2.876;2022-12-10T15:10:39;4.00;99.90
61151;DHT22;47029;50.994;2.876;2022-12-10T15:13:06;5.70;99.90
61151;DHT22;47029;50.994;2.876;2022-12-10T15:15:36;5.70;99.90
61151;DHT22;47029;50.994;2.876;2022-12-10T15:25:59;5.50;99.90
61151;DHT22;47029;50.994;2.876;2022-12-10T15:28:36;5.30;99.90
61151;DHT22;47029;50.994;2.876;2022-12-10T15:33:52;5.40;99.90
61151;DHT22;47029;50.994;2.876;2022-12-10T15:38:46;5.20;99.90
61151;DHT22;47029;50.994;2.876;2022-12-10T15:44:05;4.90;99.90
61151;DHT22;47029;50.994;2.876;2022-12-10T15:46:32;4.70;99.90
61151;DHT22;47029;50.994;2.876;2022-12-10T15:48:58;4.80;99.90
61151;DHT22;47029;50.994;2.876;2022-12-10T15:51:25;4.80;99.90
61151;DHT22;47029;50.994;2.876;2022-12-10T15:53:51;4.70;99.90
61151;DHT22;47029;50.994;2.876;2022-12-10T15:56:17;4.80;99.90
61151;DHT22;47029;50.994;2.876;2022-12-10T15:58:43;4.80;99.90
61151;DHT22;47029;50.994;2.876;2022-12-10T16:01:12;4.80;99.90
61151;DHT22;47029;50.994;2.876;2022-12-10T16:03:38;4.90;99.90
61151;DHT22;47029;50.994;2.876;2022-12-10T16:06:06;4.60;99.90
61151;DHT22;47029;50.994;2.876;2022-12-10T16:08:33;4.80;99.90
61151;DHT22;47029;50.994;2.876;2022-12-10T16:11:03;4.70;99.90
61151;DHT22;47029;50.994;2.876;2022-12-10T16:13:35;4.80;99.90
61151;DHT22;47029;50.994;2.876;2022-12-10T16:16:08;4.70;99.90
61151;DHT22;47029;50.994;2.876;2022-12-10T16:18:34;4.60;99.90
61151;DHT22;47029;50.994;2.876;2022-12-10T16:21:03;4.60;99.90
61151;DHT22;47029;50.994;2.876;2022-12-10T16:23:29;4.70;99.90
61151;DHT22;47029;50.994;2.876;2022-12-10T16:25:55;4.40;99.90
61151;DHT22;47029;50.994;2.876;2022-12-10T16:28:22;4.40;99.90
61151;DHT22;47029;50.994;2.876;2022-12-10T16:30:51;4.70;99.90
61151;DHT22;47029;50.994;2.876;2022-12-10T16:33:18;4.50;99.90
61151;DHT22;47029;50.994;2.876;2022-12-10T16:35:46;4.50;99.90
61151;DHT22;47029;50.994;2.876;2022-12-10T16:38:12;4.40;99.90
61151;DHT22;47029;50.994;2.876;2022-12-10T16:40:40;4.30;99.90
61151;DHT22;47029;50.994;2.876;2022-12-10T16:43:11;4.40;99.90
61151;DHT22;47029;50.994;2.876;2022-12-10T16:45:39;4.40;99.90
61151;DHT22;47029;50.994;2.876;2022-12-10T16:48:05;4.30;99.90
61151;DHT22;47029;50.994;2.876;2022-12-10T16:50:32;4.40;99.90
61151;DHT22;47029;50.994;2.876;2022-12-10T16:53:23;4.20;99.90
61151;DHT22;47029;50.994;2.876;2022-12-10T16:55:49;4.30;99.90
61151;DHT22;47029;50.994;2.876;2022-12-10T16:58:16;4.30;99.90
61151;DHT22;47029;50.994;2.876;2022-12-10T17:00:48;4.20;99.90
61151;DHT22;47029;50.994;2.876;2022-12-10T17:03:21;4.20;99.90
61151;DHT22;47029;50.994;2.876;2022-12-10T17:05:55;4.20;99.90
61151;DHT22;47029;50.994;2.876;2022-12-10T17:08:24;4.00;99.90
61151;DHT22;47029;50.994;2.876;2022-12-10T17:10:51;4.10;99.90
61151;DHT22;47029;50.994;2.876;2022-12-10T17:13:36;3.90;99.90
61151;DHT22;47029;50.994;2.876;2022-12-10T17:16:03;3.70;99.90
61151;DHT22;47029;50.994;2.876;2022-12-10T17:18:30;3.80;99.90
61151;DHT22;47029;50.994;2.876;2022-12-10T17:20:58;3.60;99.90
61151;DHT22;47029;50.994;2.876;2022-12-10T17:23:25;3.80;99.90
61151;DHT22;47029;50.994;2.876;2022-12-10T17:25:51;3.80;99.90
61151;DHT22;47029;50.994;2.876;2022-12-10T17:28:20;4.00;99.90
61151;DHT22;47029;50.994;2.876;2022-12-10T17:30:48;3.70;99.90
61151;DHT22;47029;50.994;2.876;2022-12-10T17:33:23;3.60;99.90
61151;DHT22;47029;50.994;2.876;2022-12-10T17:35:52;3.70;99.90
61151;DHT22;47029;50.994;2.876;2022-12-10T17:38:23;3.90;99.90
61151;DHT22;47029;50.994;2.876;2022-12-10T17:40:50;3.90;99.90
61151;DHT22;47029;50.994;2.876;2022-12-10T17:43:18;3.90;99.90
61151;DHT22;47029;50.994;2.876;2022-12-10T17:45:44;3.90;99.90
61151;DHT22;47029;50.994;2.876;2022-12-10T17:48:15;3.80;99.90
61151;DHT22;47029;50.994;2.876;2022-12-10T17:50:42;3.70;99.90
61151;DHT22;47029;50.994;2.876;2022-12-10T17:53:10;3.70;99.90
61151;DHT22;47029;50.994;2.876;2022-12-10T17:55:40;3.60;99.90
61151;DHT22;47029;50.994;2.876;2022-12-10T17:58:08;3.70;99.90
61151;DHT22;47029;50.994;2.876;2022-12-10T18:00:37;3.80;99.90
61151;DHT22;47029;50.994;2.876;2022-12-10T18:03:03;3.50;99.90
61151;DHT22;47029;50.994;2.876;2022-12-10T18:05:30;3.40;99.90
61151;DHT22;47029;50.994;2.876;2022-12-10T18:07:57;3.30;99.90
61151;DHT22;47029;50.994;2.876;2022-12-10T18:10:26;3.20;99.90
61151;DHT22;47029;50.994;2.876;2022-12-10T18:12:53;3.40;99.90
61151;DHT22;47029;50.994;2.876;2022-12-10T18:15:20;3.00;99.90
61151;DHT22;47029;50.994;2.876;2022-12-10T18:17:46;3.00;99.90